This is the latest recevied weather packets stored in our database for station/object DB0SVX. If no packets are shown the sender has not sent any weather packets the latest 10 day(s).
| Time | Temp. | Humidity | Pressure | Rain* | Wind** | Luminosity | Snow |
|---|---|---|---|---|---|---|---|
| 1777839920 | 13.89° C | 47% | 1013.2 hPa | 0 mm | - | - | - |
| 1777839020 | 14.44° C | 47% | 1013.2 hPa | 0 mm | - | - | - |
| 1777838120 | 14.44° C | 46% | 1012.9 hPa | 0 mm | - | - | - |
| 1777837220 | 15.56° C | 45% | 1012.7 hPa | 0 mm | - | - | - |
| 1777836320 | 16.11° C | 44% | 1012.4 hPa | 0 mm | - | - | - |
| 1777835420 | 16.67° C | 43% | 1012 hPa | 0 mm | - | - | - |
| 1777834520 | 17.22° C | 41% | 1012 hPa | 0 mm | - | - | - |
| 1777833620 | 17.78° C | 38% | 1011.7 hPa | 0 mm | - | - | - |
| 1777832720 | 18.33° C | 37% | 1011.4 hPa | 0 mm | - | - | - |
| 1777831820 | 19.44° C | 34% | 1011.4 hPa | 0 mm | - | - | - |
| 1777830920 | 20.56° C | 32% | 1011.4 hPa | 0 mm | - | - | - |
| 1777830020 | 21.67° C | 30% | 1011.5 hPa | 0 mm | - | - | - |
| 1777829120 | 22.78° C | 29% | 1011.4 hPa | 0 mm | - | - | - |
| 1777828220 | 24.44° C | 28% | 1011.4 hPa | 0 mm | - | - | - |
| 1777827320 | 25.56° C | 25% | 1011.4 hPa | 0 mm | - | - | - |
| 1777826420 | 27.22° C | 23% | 1011.2 hPa | 0 mm | - | - | - |
| 1777825520 | 30.56° C | 20% | 1011.2 hPa | 0 mm | - | - | - |
| 1777824620 | 32.22° C | 19% | 1011.2 hPa | 0 mm | - | - | - |
| 1777823720 | 33.89° C | 18% | 1011.2 hPa | 0 mm | - | - | - |
| 1777822820 | 33.89° C | 19% | 1011.2 hPa | 0 mm | - | - | - |
| 1777821920 | 35° C | 18% | 1011.4 hPa | 0 mm | - | - | - |
| 1777821020 | 35.56° C | 18% | 1011.5 hPa | 0 mm | - | - | - |
| 1777820120 | 33.89° C | 19% | 1011.4 hPa | 0 mm | - | - | - |
| 1777819220 | 32.22° C | 19% | 1011.5 hPa | 0 mm | - | - | - |
| 1777818320 | 29.44° C | 22% | 1011.7 hPa | 0 mm | - | - | - |
* Rain latest hour (hover to see other rain measurements)
** Current wind speed in m/s (hover to see current wind gust speed)